createdAt,value
2019-02-26T00:01:50.479Z,3.99
2019-02-26T00:11:53.423Z,3.96
2019-02-26T00:21:58.520Z,3.82
2019-02-26T00:32:03.734Z,3.47
2019-02-26T00:42:08.971Z,3.76
2019-02-26T00:52:15.607Z,3.89
2019-02-26T01:02:20.663Z,3.88
2019-02-26T01:12:25.689Z,3.85
2019-02-26T01:22:31.104Z,3.58
2019-02-26T01:32:37.489Z,3.58
2019-02-26T01:42:47.206Z,3.27
2019-02-26T01:52:50.040Z,3.07
2019-02-26T02:02:56.147Z,3.35
2019-02-26T02:13:02.837Z,3.47
2019-02-26T02:23:07.705Z,3.91
2019-02-26T02:33:17.200Z,4.15
2019-02-26T02:43:21.372Z,4.29
2019-02-26T02:53:27.424Z,4.34
2019-02-26T03:03:32.473Z,4.39
2019-02-26T03:13:40.342Z,4.48
2019-02-26T03:23:45.675Z,4.49
2019-02-26T03:33:50.914Z,4.33
2019-02-26T03:43:58.267Z,3.93
2019-02-26T03:54:02.745Z,3.93
2019-02-26T04:04:07.796Z,4.11
2019-02-26T04:14:17.376Z,4.37
2019-02-26T04:24:19.550Z,4.43
2019-02-26T04:34:27.647Z,4.58
2019-02-26T04:44:47.706Z,4.54
2019-02-26T04:54:51.577Z,4.64
2019-02-26T05:04:56.641Z,4.47
2019-02-26T05:15:01.771Z,4.77
2019-02-26T05:25:13.767Z,4.94
2019-02-26T05:35:18.071Z,5.10
2019-02-26T05:45:23.836Z,5.22
2019-02-26T05:55:29.598Z,5.21
2019-02-26T06:05:34.634Z,5.31
2019-02-26T06:15:39.800Z,5.28
2019-02-26T06:25:44.972Z,5.37
2019-02-26T06:35:50.433Z,5.56
2019-02-26T06:45:55.595Z,5.65
2019-02-26T06:56:01.264Z,5.67
2019-02-26T07:06:06.150Z,5.67
2019-02-26T07:16:11.212Z,5.91
2019-02-26T07:26:18.313Z,6.00
2019-02-26T07:36:25.798Z,6.23
2019-02-26T07:46:30.855Z,6.36
2019-02-26T07:56:36.213Z,6.54
2019-02-26T08:06:41.651Z,6.88
2019-02-26T08:16:49.240Z,7.42
2019-02-26T08:26:53.973Z,7.92
2019-02-26T08:36:59.424Z,8.57
2019-02-26T08:47:08.801Z,8.68
2019-02-26T08:57:12.606Z,8.91
2019-02-26T09:07:19.531Z,9.52
2019-02-26T09:17:26.728Z,10.40
2019-02-26T09:27:32.111Z,10.76
2019-02-26T09:37:38.480Z,10.35
2019-02-26T09:47:44.919Z,10.95
2019-02-26T09:57:50.674Z,11.44
2019-02-26T10:07:57.989Z,12.86
2019-02-26T10:18:04.886Z,11.53
2019-02-26T10:28:11.583Z,13.20
2019-02-26T10:38:16.954Z,14.06
2019-02-26T10:48:25.105Z,15.43
2019-02-26T10:58:29.032Z,16.18
2019-02-26T11:08:35.067Z,16.30
2019-02-26T11:18:42.529Z,14.69
2019-02-26T11:28:47.915Z,14.50
2019-02-26T11:38:53.439Z,14.46
2019-02-26T11:48:58.637Z,15.09
2019-02-26T11:59:06.610Z,15.41
2019-02-26T12:09:13.692Z,15.41
2019-02-26T12:19:18.104Z,15.12
2019-02-26T12:29:24.046Z,13.65
2019-02-26T12:39:31.378Z,13.31
2019-02-26T12:49:39.149Z,13.33
2019-02-26T12:59:43.621Z,13.05
2019-02-26T13:09:51.961Z,12.54
2019-02-26T13:19:58.867Z,12.66
2019-02-26T13:30:03.268Z,11.67
2019-02-26T13:40:18.399Z,11.24
2019-02-26T13:50:34.724Z,11.08
2019-02-26T14:00:39.767Z,10.84
2019-02-26T14:10:44.853Z,10.91
2019-02-26T14:20:50.050Z,10.69
2019-02-26T14:30:55.157Z,10.65
2019-02-26T14:41:02.440Z,10.69
2019-02-26T14:51:07.444Z,10.71
2019-02-26T15:01:12.834Z,12.34
2019-02-26T15:11:17.999Z,10.78
2019-02-26T15:21:23.699Z,10.27
2019-02-26T15:31:29.230Z,9.89
2019-02-26T15:41:34.615Z,9.85
2019-02-26T15:51:39.819Z,9.31
2019-02-26T16:01:45.006Z,9.12
2019-02-26T16:11:50.392Z,8.87
2019-02-26T16:21:55.920Z,8.61
2019-02-26T16:32:02.654Z,8.39
2019-02-26T16:42:11.367Z,8.10
2019-02-26T16:52:15.632Z,7.87
2019-02-26T17:02:21.106Z,7.79
2019-02-26T17:12:26.965Z,7.52
2019-02-26T17:22:33.864Z,7.27
2019-02-26T17:32:39.545Z,6.95
2019-02-26T17:42:45.219Z,6.97
2019-02-26T17:52:50.867Z,6.90
2019-02-26T18:02:56.286Z,6.83
2019-02-26T18:13:01.511Z,6.71
2019-02-26T18:23:07.159Z,6.61
2019-02-26T18:33:12.914Z,6.61
2019-02-26T18:43:18.408Z,6.49
2019-02-26T18:53:24.150Z,6.23
2019-02-26T19:03:29.883Z,6.16
2019-02-26T19:13:36.256Z,5.97
2019-02-26T19:23:41.923Z,5.81
2019-02-26T19:33:47.632Z,5.75
2019-02-26T19:43:53.313Z,5.64
2019-02-26T19:53:58.963Z,5.33
2019-02-26T20:04:05.474Z,5.29
2019-02-26T20:14:12.304Z,5.15
2019-02-26T20:24:18.439Z,4.97
2019-02-26T20:34:24.033Z,4.86
2019-02-26T20:44:29.540Z,4.78
2019-02-26T20:54:35.218Z,4.70
2019-02-26T21:04:40.709Z,4.38
2019-02-26T21:14:46.099Z,4.28
2019-02-26T21:24:52.723Z,4.19
2019-02-26T21:34:58.238Z,4.08
2019-02-26T21:45:03.729Z,4.02
2019-02-26T21:55:10.669Z,3.77
2019-02-26T22:05:16.916Z,3.78
2019-02-26T22:15:22.217Z,3.77
2019-02-26T22:25:29.250Z,3.63
2019-02-26T22:35:35.051Z,3.49
2019-02-26T22:45:40.359Z,3.31
2019-02-26T22:55:49.586Z,3.26
2019-02-26T23:05:52.514Z,2.91
2019-02-26T23:15:57.616Z,2.77
2019-02-26T23:26:03.102Z,2.73
2019-02-26T23:36:09.411Z,2.53
2019-02-26T23:46:14.319Z,2.30
2019-02-26T23:56:19.890Z,1.95
